createdAt,value
2023-08-20T00:02:28.321Z,60.46
2023-08-20T00:04:58.282Z,60.41
2023-08-20T00:07:28.956Z,60.39
2023-08-20T00:09:59.244Z,60.40
2023-08-20T00:12:29.353Z,60.68
2023-08-20T00:15:05.906Z,60.64
2023-08-20T00:17:37.789Z,60.51
2023-08-20T00:20:16.475Z,60.48
2023-08-20T00:22:47.758Z,60.84
2023-08-20T00:25:18.736Z,60.77
2023-08-20T00:27:48.765Z,60.79
2023-08-20T00:30:18.834Z,60.94
2023-08-20T00:43:22.111Z,54.24
2023-08-20T00:45:53.052Z,55.64
2023-08-20T00:48:23.013Z,56.60
2023-08-20T00:50:52.879Z,57.32
2023-08-20T00:53:22.771Z,58.06
2023-08-20T00:55:52.655Z,58.65
2023-08-20T00:58:22.652Z,58.97
2023-08-20T01:00:52.811Z,59.40
2023-08-20T01:03:22.810Z,59.67
2023-08-20T01:05:54.927Z,59.91
2023-08-20T01:08:30.304Z,60.07
2023-08-20T01:11:03.147Z,60.33
2023-08-20T01:13:33.286Z,60.49
2023-08-20T01:16:03.378Z,60.74
2023-08-20T01:18:33.575Z,60.82
2023-08-20T01:21:04.085Z,61.29
2023-08-20T01:23:54.442Z,61.17
2023-08-20T01:26:53.088Z,61.38
2023-08-20T01:29:22.991Z,61.41
2023-08-20T01:31:52.998Z,60.84
2023-08-20T01:34:23.253Z,55.24
2023-08-20T01:36:54.813Z,53.88
2023-08-20T01:39:24.825Z,55.13
2023-08-20T01:41:54.824Z,56.34
2023-08-20T01:44:24.893Z,57.48
2023-08-20T01:46:55.124Z,58.29
2023-08-20T01:49:25.066Z,58.90
2023-08-20T01:51:55.070Z,59.34
2023-08-20T01:54:24.993Z,59.89
2023-08-20T01:56:55.012Z,60.51
2023-08-20T01:59:26.116Z,60.78
2023-08-20T02:01:56.151Z,60.92
2023-08-20T02:04:26.310Z,61.18
2023-08-20T02:06:56.504Z,61.43
2023-08-20T02:09:26.576Z,61.58
2023-08-20T02:11:56.710Z,61.68
2023-08-20T02:14:28.306Z,61.78
2023-08-20T02:16:58.433Z,60.92
2023-08-20T02:19:28.612Z,55.37
2023-08-20T02:21:58.734Z,53.84
2023-08-20T02:24:29.890Z,55.12
2023-08-20T02:27:00.015Z,56.25
2023-08-20T02:29:30.039Z,57.35
2023-08-20T02:32:00.120Z,58.39
2023-08-20T02:34:30.247Z,59.12
2023-08-20T02:37:00.323Z,59.69
2023-08-20T02:39:30.151Z,59.99
2023-08-20T02:42:00.508Z,60.49
2023-08-20T02:44:30.684Z,60.82
2023-08-20T02:47:00.633Z,61.09
2023-08-20T02:49:30.720Z,61.19
2023-08-20T02:52:00.864Z,61.88
2023-08-20T02:54:33.307Z,61.95
2023-08-20T02:57:03.815Z,55.72
2023-08-20T02:59:33.929Z,54.69
2023-08-20T03:02:04.773Z,56.12
2023-08-20T03:04:36.106Z,57.76
2023-08-20T03:07:06.391Z,59.04
2023-08-20T03:09:36.315Z,60.43
2023-08-20T03:12:07.598Z,61.44
2023-08-20T03:14:37.585Z,62.49
2023-08-20T03:17:07.604Z,62.96
2023-08-20T03:19:37.785Z,62.77
2023-08-20T03:22:07.677Z,57.49
2023-08-20T03:24:37.759Z,56.30
2023-08-20T03:27:07.835Z,58.39
2023-08-20T03:29:38.002Z,59.66
2023-08-20T03:32:08.309Z,60.53
2023-08-20T03:34:38.313Z,61.56
2023-08-20T03:37:08.350Z,63.00
2023-08-20T03:39:38.603Z,62.92
2023-08-20T03:42:08.823Z,63.15
2023-08-20T03:44:41.708Z,62.11
2023-08-20T03:47:11.849Z,56.58
2023-08-20T03:49:42.083Z,55.34
2023-08-20T03:52:12.335Z,56.50
2023-08-20T03:54:42.336Z,57.92
2023-08-20T03:57:12.542Z,59.22
2023-08-20T03:59:42.527Z,60.19
2023-08-20T04:02:12.386Z,60.86
2023-08-20T04:04:43.432Z,61.52
2023-08-20T04:07:13.390Z,62.12
2023-08-20T04:09:43.815Z,63.12
2023-08-20T04:12:15.524Z,62.39
2023-08-20T04:14:45.490Z,56.64
2023-08-20T04:17:15.533Z,55.92
2023-08-20T04:19:46.022Z,57.61
2023-08-20T04:22:16.058Z,59.24
2023-08-20T04:24:45.907Z,60.40
2023-08-20T04:27:15.906Z,61.45
2023-08-20T04:29:45.953Z,62.33
2023-08-20T04:32:15.973Z,62.93
2023-08-20T04:34:47.384Z,62.24
2023-08-20T04:37:17.805Z,56.97
2023-08-20T04:39:49.981Z,56.38
2023-08-20T04:42:20.134Z,57.81
2023-08-20T04:44:50.129Z,59.24
2023-08-20T04:47:21.158Z,60.24
2023-08-20T04:49:51.344Z,60.93
2023-08-20T04:52:21.695Z,61.68
2023-08-20T04:54:51.939Z,62.27
2023-08-20T04:57:22.483Z,62.11
2023-08-20T04:59:52.972Z,57.14
2023-08-20T05:02:36.197Z,56.55
2023-08-20T05:05:11.099Z,58.04
2023-08-20T05:07:44.773Z,59.56
2023-08-20T05:10:14.821Z,60.79
2023-08-20T05:12:45.060Z,61.49
2023-08-20T05:15:15.743Z,62.02
2023-08-20T05:17:45.989Z,62.39
2023-08-20T05:20:16.712Z,57.45
2023-08-20T05:22:47.704Z,57.13
2023-08-20T05:25:18.040Z,58.51
2023-08-20T05:27:48.411Z,59.83
2023-08-20T05:30:19.015Z,60.79
2023-08-20T05:32:49.035Z,61.89
2023-08-20T05:35:19.282Z,62.86
2023-08-20T05:37:49.625Z,62.18
2023-08-20T05:40:19.924Z,56.76
2023-08-20T05:42:52.342Z,56.32
2023-08-20T05:45:22.642Z,57.57
2023-08-20T05:47:52.889Z,58.84
2023-08-20T05:50:22.979Z,59.71
2023-08-20T05:52:53.634Z,60.37
2023-08-20T05:55:25.073Z,60.96
2023-08-20T05:57:55.856Z,61.13
2023-08-20T06:00:25.934Z,61.48
2023-08-20T06:02:56.191Z,61.44
2023-08-20T06:05:26.180Z,62.02
2023-08-20T06:07:56.754Z,62.15
2023-08-20T06:10:27.579Z,61.49
2023-08-20T06:12:58.257Z,56.03
2023-08-20T06:15:28.323Z,55.00
2023-08-20T06:17:58.365Z,55.67
2023-08-20T06:20:28.468Z,56.69
2023-08-20T06:22:58.460Z,57.21
2023-08-20T06:25:28.455Z,57.58
2023-08-20T06:27:58.519Z,56.85
2023-08-20T06:30:29.003Z,57.31
2023-08-20T06:32:58.976Z,57.93
2023-08-20T06:35:29.015Z,57.80
2023-08-20T06:37:59.475Z,58.06
2023-08-20T06:40:29.771Z,57.22
2023-08-20T06:42:59.988Z,58.16
2023-08-20T06:45:30.533Z,58.12
2023-08-20T06:48:00.494Z,57.94
2023-08-20T06:50:30.726Z,58.08
2023-08-20T06:53:00.625Z,57.94
2023-08-20T06:55:30.661Z,57.75
2023-08-20T06:58:01.018Z,57.51
2023-08-20T07:00:31.118Z,57.86
2023-08-20T07:03:01.146Z,57.22
2023-08-20T07:05:31.339Z,56.80
2023-08-20T07:08:01.435Z,55.89
2023-08-20T07:10:31.528Z,55.89
2023-08-20T07:13:01.475Z,55.67
2023-08-20T07:15:31.986Z,54.61
2023-08-20T07:18:02.130Z,53.90
2023-08-20T07:20:32.181Z,54.23
2023-08-20T07:23:03.229Z,53.89
2023-08-20T07:25:35.093Z,53.03
2023-08-20T07:28:06.436Z,52.36
2023-08-20T07:30:36.715Z,52.70
2023-08-20T07:33:07.351Z,52.13
2023-08-20T07:35:37.292Z,51.89
2023-08-20T07:38:07.285Z,51.93
2023-08-20T07:40:37.296Z,51.55
2023-08-20T07:43:07.839Z,51.23
2023-08-20T07:45:38.387Z,50.28
2023-08-20T07:48:09.176Z,50.76
2023-08-20T07:50:39.516Z,50.28
2023-08-20T07:53:11.948Z,50.04
2023-08-20T07:55:41.920Z,50.26
2023-08-20T07:58:12.064Z,50.06
2023-08-20T08:00:42.029Z,49.48
2023-08-20T08:03:12.077Z,49.47
2023-08-20T08:05:42.197Z,49.28
2023-08-20T08:08:12.218Z,49.23
2023-08-20T08:10:42.265Z,48.78
2023-08-20T08:13:12.477Z,48.44
2023-08-20T08:15:42.514Z,48.01
2023-08-20T08:18:12.501Z,47.81
2023-08-20T08:20:42.571Z,48.03
2023-08-20T08:23:12.622Z,47.63
2023-08-20T08:25:42.702Z,47.50
2023-08-20T08:28:12.645Z,47.29
2023-08-20T08:30:43.140Z,47.10
2023-08-20T08:33:13.402Z,46.60
2023-08-20T08:35:43.447Z,46.47
2023-08-20T08:38:13.562Z,46.48
2023-08-20T08:40:43.522Z,46.24
2023-08-20T08:43:17.588Z,46.19
2023-08-20T08:45:50.001Z,45.74
2023-08-20T08:48:20.774Z,45.84
2023-08-20T08:50:50.723Z,46.15
2023-08-20T08:53:20.679Z,45.82
2023-08-20T08:55:51.305Z,45.34
2023-08-20T08:58:21.595Z,44.63
2023-08-20T09:00:51.928Z,44.16
2023-08-20T09:03:22.003Z,43.85
2023-08-20T09:05:56.391Z,43.62
2023-08-20T09:08:29.127Z,42.93
2023-08-20T09:10:59.721Z,42.77
2023-08-20T09:13:36.261Z,42.34
2023-08-20T09:16:09.715Z,42.23
2023-08-20T09:18:41.833Z,42.06
2023-08-20T09:21:12.006Z,42.24
2023-08-20T09:23:41.947Z,41.85
2023-08-20T09:26:11.950Z,41.96
2023-08-20T09:28:45.330Z,41.89
2023-08-20T09:31:15.395Z,41.50
2023-08-20T09:33:54.793Z,41.59
2023-08-20T09:36:33.413Z,41.39
2023-08-20T09:39:03.433Z,41.61
2023-08-20T09:41:33.581Z,41.73
2023-08-20T09:44:03.597Z,40.90
2023-08-20T09:46:34.128Z,40.76
2023-08-20T09:49:04.475Z,41.14
2023-08-20T09:51:35.241Z,40.61
2023-08-20T09:54:12.521Z,40.40
2023-08-20T09:56:42.432Z,40.54
2023-08-20T09:59:12.338Z,40.54
2023-08-20T10:01:42.344Z,40.29
2023-08-20T10:04:13.653Z,40.01
2023-08-20T10:06:43.643Z,39.80
2023-08-20T10:09:14.267Z,39.19
2023-08-20T10:11:44.248Z,38.79
2023-08-20T10:14:15.354Z,38.78
2023-08-20T10:16:45.287Z,38.66
2023-08-20T10:19:16.673Z,38.41
2023-08-20T10:21:47.863Z,38.36
2023-08-20T10:24:20.483Z,37.63
2023-08-20T10:26:50.808Z,37.73
2023-08-20T10:29:40.358Z,37.31
2023-08-20T10:32:11.103Z,37.22
2023-08-20T10:34:43.501Z,37.18
2023-08-20T10:37:14.665Z,36.90
2023-08-20T10:39:44.781Z,36.88
2023-08-20T10:42:31.139Z,36.09
2023-08-20T10:45:02.276Z,35.90
2023-08-20T10:47:39.611Z,35.94
2023-08-20T10:50:12.155Z,35.27
2023-08-20T10:52:43.285Z,35.43
2023-08-20T10:55:13.560Z,35.58
2023-08-20T10:57:43.807Z,34.59
2023-08-20T11:00:18.013Z,35.05
2023-08-20T11:02:48.175Z,35.06
2023-08-20T11:05:22.599Z,34.58
2023-08-20T11:07:52.907Z,34.22
2023-08-20T11:10:22.949Z,33.63
2023-08-20T11:12:53.047Z,33.50
2023-08-20T11:15:23.243Z,33.23
2023-08-20T11:17:53.362Z,32.95
2023-08-20T11:20:23.598Z,33.24
2023-08-20T11:22:53.891Z,33.10
2023-08-20T11:25:24.102Z,32.27
2023-08-20T11:27:53.974Z,32.38
2023-08-20T11:30:25.714Z,32.62
2023-08-20T11:32:55.764Z,32.42
2023-08-20T11:35:25.870Z,32.70
2023-08-20T11:37:56.053Z,32.83
2023-08-20T11:40:26.032Z,32.62
2023-08-20T11:42:56.137Z,32.86
2023-08-20T11:45:26.198Z,32.90
2023-08-20T11:47:59.552Z,33.00
2023-08-20T11:50:29.636Z,32.77
2023-08-20T11:53:02.465Z,33.03
2023-08-20T11:55:32.556Z,32.77
2023-08-20T11:58:02.884Z,32.77
2023-08-20T12:00:33.323Z,32.86
2023-08-20T12:03:05.193Z,32.79
2023-08-20T12:05:35.198Z,32.43
2023-08-20T12:08:05.547Z,32.62
2023-08-20T12:10:36.072Z,32.53
2023-08-20T12:13:06.361Z,32.20
2023-08-20T12:15:36.368Z,32.18
2023-08-20T12:18:07.836Z,32.14
2023-08-20T12:20:38.362Z,32.09
2023-08-20T12:23:08.875Z,31.41
2023-08-20T12:25:39.140Z,31.18
2023-08-20T12:28:09.551Z,31.14
2023-08-20T12:30:40.235Z,31.23
2023-08-20T12:33:10.407Z,31.17
2023-08-20T12:35:40.433Z,30.79
2023-08-20T12:38:11.000Z,30.75
2023-08-20T12:40:41.093Z,30.27
2023-08-20T12:43:10.984Z,30.77
2023-08-20T12:45:41.428Z,30.84
2023-08-20T12:48:11.417Z,30.81
2023-08-20T12:50:42.372Z,31.03
2023-08-20T12:53:14.124Z,30.77
2023-08-20T12:55:44.116Z,30.66
2023-08-20T12:58:14.466Z,30.76
2023-08-20T13:00:44.722Z,30.76
2023-08-20T13:03:15.808Z,30.99
2023-08-20T13:05:46.698Z,30.75
2023-08-20T13:08:17.558Z,30.78
2023-08-20T13:10:49.575Z,30.52
2023-08-20T13:13:19.488Z,30.69
2023-08-20T13:15:50.522Z,30.63
2023-08-20T13:18:25.873Z,30.47
2023-08-20T13:20:56.315Z,30.14
2023-08-20T13:23:26.308Z,30.43
2023-08-20T13:25:56.651Z,30.37
2023-08-20T13:28:26.804Z,30.48
2023-08-20T13:30:56.847Z,30.44
2023-08-20T13:33:27.161Z,30.26
2023-08-20T13:35:58.499Z,30.37
2023-08-20T13:38:28.943Z,29.99
2023-08-20T13:40:59.182Z,30.24
2023-08-20T13:43:29.251Z,29.96
2023-08-20T13:45:59.515Z,29.74
2023-08-20T13:48:29.501Z,29.74
2023-08-20T13:50:59.680Z,29.72
2023-08-20T13:53:29.778Z,29.54
2023-08-20T13:55:59.986Z,29.87
2023-08-20T13:58:30.174Z,29.87
2023-08-20T14:01:00.554Z,29.96
2023-08-20T14:03:30.614Z,29.64
2023-08-20T14:06:01.131Z,29.45
2023-08-20T14:08:31.551Z,29.49
2023-08-20T14:11:01.668Z,29.24
2023-08-20T14:13:31.530Z,29.47
2023-08-20T14:16:02.283Z,29.48
2023-08-20T14:18:32.721Z,29.52
2023-08-20T14:21:02.723Z,29.82
2023-08-20T14:23:33.010Z,30.00
2023-08-20T14:26:05.063Z,29.98
2023-08-20T14:28:34.990Z,30.17
2023-08-20T14:31:05.926Z,29.98
2023-08-20T14:33:36.086Z,29.98
2023-08-20T14:36:06.713Z,29.91
2023-08-20T14:38:37.004Z,29.77
2023-08-20T14:41:07.442Z,29.65
2023-08-20T14:43:40.687Z,29.70
2023-08-20T14:46:10.664Z,29.95
2023-08-20T14:48:42.424Z,29.69
2023-08-20T14:51:12.428Z,29.69
2023-08-20T14:53:42.459Z,30.10
2023-08-20T14:56:12.491Z,30.31
2023-08-20T14:58:42.541Z,30.56
2023-08-20T15:01:12.512Z,30.49
2023-08-20T15:03:42.919Z,30.10
2023-08-20T15:06:13.048Z,29.62
2023-08-20T15:08:43.141Z,29.65
2023-08-20T15:11:12.981Z,29.32
2023-08-20T15:13:42.870Z,28.89
2023-08-20T15:16:13.106Z,29.03
2023-08-20T15:18:42.990Z,28.92
2023-08-20T15:21:12.980Z,29.08
2023-08-20T15:23:43.241Z,28.98
2023-08-20T15:26:13.370Z,29.27
2023-08-20T15:28:43.396Z,28.84
2023-08-20T15:31:13.420Z,29.90
2023-08-20T15:33:43.793Z,30.74
2023-08-20T15:36:13.809Z,31.43
2023-08-20T15:38:43.915Z,31.87
2023-08-20T15:41:14.014Z,32.35
2023-08-20T15:43:47.081Z,32.83
2023-08-20T15:46:17.198Z,33.46
2023-08-20T15:48:47.747Z,33.88
2023-08-20T15:51:17.861Z,34.37
2023-08-20T15:53:47.961Z,34.52
2023-08-20T15:56:17.935Z,34.92
2023-08-20T15:58:48.838Z,35.42
2023-08-20T16:01:18.730Z,35.77
2023-08-20T16:03:48.759Z,36.17
2023-08-20T16:06:18.734Z,36.33
2023-08-20T16:08:48.716Z,36.47
2023-08-20T16:11:18.797Z,36.71
2023-08-20T16:13:49.446Z,37.22
2023-08-20T16:16:19.944Z,37.17
2023-08-20T16:18:50.308Z,37.35
2023-08-20T16:21:20.361Z,37.47
2023-08-20T16:23:50.587Z,37.47
2023-08-20T16:26:20.590Z,37.75
2023-08-20T16:28:51.864Z,37.87
2023-08-20T16:34:23.049Z,38.63
2023-08-20T16:36:53.216Z,38.91
2023-08-20T16:39:23.235Z,39.11
2023-08-20T16:41:53.289Z,39.27
2023-08-20T16:44:23.554Z,39.42
2023-08-20T16:46:54.496Z,39.48
2023-08-20T16:49:25.398Z,39.63
2023-08-20T16:51:55.444Z,39.86
2023-08-20T16:54:25.577Z,39.78
2023-08-20T16:56:56.040Z,40.08
2023-08-20T16:59:25.983Z,40.37
2023-08-20T17:01:56.060Z,40.47
2023-08-20T17:04:30.105Z,40.50
2023-08-20T17:07:00.323Z,40.81
2023-08-20T17:09:30.415Z,41.10
2023-08-20T17:12:01.440Z,41.38
2023-08-20T17:14:32.080Z,41.57
2023-08-20T17:17:03.390Z,41.97
2023-08-20T17:19:33.403Z,42.11
2023-08-20T17:22:03.693Z,42.04
2023-08-20T17:24:33.822Z,42.24
2023-08-20T17:27:04.094Z,42.46
2023-08-20T17:29:34.166Z,42.66
2023-08-20T17:32:04.196Z,42.90
2023-08-20T17:34:35.332Z,43.14
2023-08-20T17:37:05.382Z,43.32
2023-08-20T17:39:35.459Z,43.50
2023-08-20T17:42:05.668Z,43.79
2023-08-20T17:44:36.500Z,43.90
2023-08-20T17:47:06.777Z,43.98
2023-08-20T17:49:36.974Z,44.15
2023-08-20T17:52:07.220Z,44.34
2023-08-20T17:54:37.379Z,44.66
2023-08-20T17:57:07.622Z,44.88
2023-08-20T17:59:37.671Z,45.11
2023-08-20T18:02:11.198Z,45.36
2023-08-20T18:04:41.350Z,45.64
2023-08-20T18:07:11.848Z,45.69
2023-08-20T18:09:42.087Z,45.91
2023-08-20T18:12:12.281Z,46.06
2023-08-20T18:14:42.365Z,46.19
2023-08-20T18:17:12.208Z,46.55
2023-08-20T18:19:43.354Z,46.55
2023-08-20T18:22:13.369Z,46.59
2023-08-20T18:24:43.541Z,46.81
2023-08-20T18:27:13.978Z,46.93
2023-08-20T18:29:45.124Z,47.09
2023-08-20T18:32:15.454Z,47.05
2023-08-20T18:34:45.522Z,47.27
2023-08-20T18:37:15.515Z,47.35
2023-08-20T18:39:45.602Z,47.34
2023-08-20T18:42:15.594Z,47.46
2023-08-20T18:44:45.748Z,47.64
2023-08-20T18:47:15.753Z,47.74
2023-08-20T18:49:48.351Z,47.80
2023-08-20T18:52:21.351Z,48.03
2023-08-20T18:54:51.524Z,48.15
2023-08-20T18:57:21.773Z,48.45
2023-08-20T18:59:51.938Z,48.43
2023-08-20T19:02:22.000Z,48.21
2023-08-20T19:04:53.149Z,48.05
2023-08-20T19:07:23.754Z,48.43
2023-08-20T19:09:53.848Z,48.35
2023-08-20T19:12:26.709Z,48.42
2023-08-20T19:14:57.138Z,48.27
2023-08-20T19:17:27.681Z,48.27
2023-08-20T19:19:57.691Z,48.15
2023-08-20T19:22:27.709Z,48.16
2023-08-20T19:24:58.348Z,48.13
2023-08-20T19:27:28.438Z,48.42
2023-08-20T19:29:59.040Z,48.18
2023-08-20T19:32:30.386Z,48.42
2023-08-20T19:35:00.614Z,48.43
2023-08-20T19:37:30.728Z,48.44
2023-08-20T19:40:02.151Z,48.48
2023-08-20T19:42:35.671Z,48.67
2023-08-20T19:45:07.334Z,48.87
2023-08-20T19:47:37.771Z,48.96
2023-08-20T19:50:08.736Z,48.93
2023-08-20T19:52:39.340Z,48.98
2023-08-20T19:55:10.074Z,48.91
2023-08-20T19:57:41.200Z,48.85
2023-08-20T20:00:12.666Z,48.87
2023-08-20T20:02:42.911Z,48.82
2023-08-20T20:05:15.902Z,49.03
2023-08-20T20:07:45.926Z,49.09
2023-08-20T20:10:16.159Z,49.27
2023-08-20T20:12:50.507Z,49.38
2023-08-20T20:15:20.855Z,49.27
2023-08-20T20:17:50.949Z,49.37
2023-08-20T20:20:23.087Z,49.29
2023-08-20T20:22:53.444Z,49.31
2023-08-20T20:25:25.003Z,49.53
2023-08-20T20:27:55.661Z,49.82
2023-08-20T20:30:25.901Z,50.08
2023-08-20T20:32:56.140Z,50.31
2023-08-20T20:35:26.152Z,50.36
2023-08-20T20:37:56.020Z,50.50
2023-08-20T20:40:26.471Z,50.83
2023-08-20T20:42:56.664Z,50.73
2023-08-20T20:45:26.647Z,50.99
2023-08-20T20:47:56.967Z,50.98
2023-08-20T20:50:26.928Z,51.14
2023-08-20T20:52:57.214Z,51.21
2023-08-20T20:55:27.382Z,51.32
2023-08-20T20:57:57.429Z,51.27
2023-08-20T21:00:27.524Z,51.31
2023-08-20T21:02:57.644Z,51.50
2023-08-20T21:05:27.556Z,51.37
2023-08-20T21:07:57.767Z,51.32
2023-08-20T21:10:27.914Z,51.16
2023-08-20T21:12:58.055Z,51.44
2023-08-20T21:15:28.145Z,51.56
2023-08-20T21:17:58.244Z,51.60
2023-08-20T21:20:28.427Z,51.88
2023-08-20T21:22:58.436Z,51.98
2023-08-20T21:25:28.840Z,52.37
2023-08-20T21:27:58.944Z,52.49
2023-08-20T21:30:28.974Z,52.75
2023-08-20T21:32:59.052Z,52.91
2023-08-20T21:35:29.277Z,53.11
2023-08-20T21:37:59.359Z,53.23
2023-08-20T21:40:29.673Z,53.59
2023-08-20T21:42:59.620Z,53.78
2023-08-20T21:45:29.800Z,53.90
2023-08-20T21:47:59.736Z,54.07
2023-08-20T21:50:29.746Z,54.14
2023-08-20T21:52:59.677Z,54.29
2023-08-20T21:55:31.751Z,54.41
2023-08-20T21:58:01.814Z,54.55
2023-08-20T22:00:32.283Z,54.81
2023-08-20T22:03:02.330Z,54.89
2023-08-20T22:05:32.913Z,55.01
2023-08-20T22:08:03.627Z,55.18
2023-08-20T22:10:34.138Z,55.26
2023-08-20T22:13:04.267Z,55.26
2023-08-20T22:15:34.490Z,55.28
2023-08-20T22:18:05.485Z,55.43
2023-08-20T22:20:35.426Z,55.47
2023-08-20T22:23:05.566Z,55.64
2023-08-20T22:25:35.533Z,55.70
2023-08-20T22:28:06.336Z,55.56
2023-08-20T22:30:37.952Z,55.94
2023-08-20T22:33:08.138Z,55.94
2023-08-20T22:35:38.102Z,56.06
2023-08-20T22:38:10.174Z,56.01
2023-08-20T22:40:43.330Z,56.09
2023-08-20T22:43:13.320Z,56.17
2023-08-20T22:45:43.288Z,56.32
2023-08-20T22:48:13.505Z,56.53
2023-08-20T22:58:11.987Z,57.51
2023-08-20T23:00:42.085Z,57.38
2023-08-20T23:03:12.158Z,57.53
2023-08-20T23:05:42.205Z,57.52
2023-08-20T23:08:12.305Z,57.65
2023-08-20T23:10:42.315Z,57.84
2023-08-20T23:13:12.208Z,58.18
2023-08-20T23:15:44.523Z,58.46
2023-08-20T23:18:15.257Z,58.43
2023-08-20T23:20:46.212Z,58.74
2023-08-20T23:23:16.098Z,58.58
2023-08-20T23:25:47.112Z,58.55
2023-08-20T23:28:17.295Z,58.54
2023-08-20T23:30:47.283Z,58.74
2023-08-20T23:33:17.939Z,58.63
2023-08-20T23:35:48.182Z,58.81
2023-08-20T23:38:18.274Z,58.71
2023-08-20T23:40:48.375Z,58.80
2023-08-20T23:43:18.248Z,58.93
2023-08-20T23:45:48.067Z,58.92
2023-08-20T23:48:18.189Z,58.81
2023-08-20T23:50:48.245Z,58.89
2023-08-20T23:53:18.672Z,58.97
2023-08-20T23:55:48.782Z,59.09
2023-08-20T23:58:18.763Z,59.23
